Overview Statistics Trail Chart Weather Telemetry Raw packets
 

This is the latest recevied weather packets stored in our database for station/object LA4GY-1. If no packets are shown the sender has not sent any weather packets the latest 10 day(s).

<< 47 48 49 50 51 52 53 >>
Time Temp. Humidity Pressure Rain* Wind** Luminosity Snow
1787922837 21.11° C 67% 1015.9 hPa 0 mm - - -
1787922237 21.67° C 65% 1015.8 hPa 0 mm - - -
1787921637 22.22° C 64% 1015.9 hPa 0 mm - - -
1787921037 22.22° C 64% 1016 hPa 0 mm - - -
1787920437 22.22° C 64% 1015.9 hPa 0 mm - - -
1787919837 21.67° C 66% 1015.9 hPa 0 mm - - -
1787919237 21.11° C 67% 1016 hPa 0 mm - - -
1787918637 20.56° C 67% 1016.1 hPa 0 mm - - -
1787918037 20.56° C 68% 1016.2 hPa 0 mm - - -
1787917437 21.11° C 67% 1016.3 hPa 0 mm - - -
1787916837 21.11° C 65% 1016.4 hPa 0 mm - - -
1787916237 20.56° C 68% 1016.5 hPa 0 mm - - -
1787915637 20.56° C 66% 1016.7 hPa 0 mm - - -
1787915037 20° C 66% 1016.9 hPa 0 mm - - -
1787914407 20° C 67% 1016.9 hPa 0 mm - - -
1787913807 20° C 68% 1017.1 hPa 0 mm - - -
1787913206 20° C 67% 1017.2 hPa 0 mm - - -
1787912606 20° C 66% 1017.2 hPa 0 mm - - -
1787912006 19.44° C 68% 1017.3 hPa 0 mm - - -
1787911406 18.89° C 69% 1017.3 hPa 0 mm - - -
1787910806 18.33° C 70% 1017.4 hPa 0 mm - - -
1787910206 17.78° C 71% 1017.6 hPa 0 mm - - -
1787909606 17.22° C 71% 1017.7 hPa 0 mm - - -
1787909006 17.22° C 71% 1017.9 hPa 0 mm - - -
1787908406 17.78° C 71% 1018 hPa 0 mm - - -

* Rain latest hour (hover to see other rain measurements)
** Current wind speed in m/s (hover to see current wind gust speed)